Main page
METAR-TAF:

METAR-TAF

Airports :

Jammu Airport

Jammu, India

latitude: 32-41-21N, longitude: 74-50-15E, elevation: 314 m

METAR: missing

Time: 17:23 (11:53 UTC)

Forecast

The report was made 8 hours and 23 minutes ago, at 03:30 UTC
Forecast valid from 03 at 06 UTC to 03 at 18 UTC
Wind 5 kt from the North
Visibility: 4000 m
Few clouds at a height of 20000 ft
haze
Becoming
from 03 at 09 UTC to 03 at 12 UTC
Wind 5 kt from the East
Visibility: 6000 m
Clear sky
Temporary
from 03 at 13 UTC to 03 at 15 UTC
Visibility: 3500 m
haze

TAF: VIJU 030330Z 0306/0318 01005KT 4000 HZ FEW200 BECMG 0309/0312 08005KT 6000 SKC TEMPO 0313/0315 3500 HZ

Weather observations and forecasts of more than 4000 airports (METAR and TAF reports).

The available stations are represented by yellow and red dots on the map.

Hover mouse over dot to see the name of the station.

Then click to see weather observations and forecasts.

To change the map : click on the green buttons with a black cross to zoom in, on the green button with a dash to zoom out, or on the green arrows for adjacent maps.


METAR-TAF: